Time;durP1;ratioP1;P1;durP2;ratioP2;P2;SDS_P1;SDS_P2;PMS_P1;PMS_P2;Temp;Humidity;BMP_temperature;BMP_pressure;BME280_temperature;BME280_humidity;BME280_pressure;Samples;Min_cycle;Max_cycle;Signal;HPM_P1;HPM_P2
2022/12/23 00:01:00;;;;;;;15.35;10.45;;;;;;;8.87;100.00;100426.97;5116927;29;20035;-90
2022/12/23 00:03:31;;;;;;;13.25;10.27;;;;;;;9.08;100.00;100455.72;5132887;28;20382;-90
2022/12/23 00:06:07;;;;;;;15.80;13.20;;;;;;;8.82;100.00;100421.53;5115526;29;20070;-90
2022/12/23 00:08:39;;;;;;;12.93;10.48;;;;;;;9.06;100.00;100448.94;5132796;29;20079;-91
2022/12/23 00:11:15;;;;;;;16.00;10.15;;;;;;;8.79;100.00;100422.84;5132645;29;20054;-90
2022/12/23 00:16:35;;;;;;;12.07;11.18;;;;;;;8.21;100.00;100358.16;5132481;29;20587;-91
2022/12/23 00:19:06;;;;;;;11.23;10.23;;;;;;;8.84;100.00;100453.59;5115149;29;20033;-91
2022/12/23 00:21:36;;;;;;;19.05;11.75;;;;;;;9.10;100.00;100468.91;5124469;29;20389;-90
2022/12/23 00:24:07;;;;;;;24.13;11.38;;;;;;;9.13;100.00;100468.41;5095538;29;20031;-90
2022/12/23 00:26:37;;;;;;;13.35;8.80;;;;;;;8.57;100.00;100389.81;5112256;29;20035;-91
2022/12/23 00:29:08;;;;;;;12.90;10.93;;;;;;;9.08;100.00;100489.91;5095178;29;20034;-91
2022/12/23 00:31:38;;;;;;;13.38;10.43;;;;;;;8.44;100.00;100368.66;5095117;29;20023;-90
2022/12/23 00:34:09;;;;;;;15.35;8.55;;;;;;;8.86;100.00;100446.06;5094524;29;20062;-90
2022/12/23 00:36:40;;;;;;;14.43;10.18;;;;;;;8.70;100.00;100427.06;5094958;29;20099;-91
2022/12/23 00:44:51;;;;;;;17.42;11.93;;;;;;;8.92;100.00;100475.50;5111876;29;20066;-90
2022/12/23 00:50:10;;;;;;;13.85;11.75;;;;;;;8.91;100.00;100486.53;5111656;29;20044;-91
2022/12/23 00:52:40;;;;;;;11.32;10.45;;;;;;;8.89;100.00;100485.97;5109785;29;20079;-90
2022/12/23 00:55:11;;;;;;;20.25;13.02;;;;;;;8.54;100.00;100441.44;5113632;29;20038;-91
2022/12/23 00:57:41;;;;;;;13.52;9.73;;;;;;;8.52;100.00;100432.00;5114938;29;20023;-90
2022/12/23 01:00:12;;;;;;;22.63;12.50;;;;;;;9.06;100.00;100505.50;5114650;29;20028;-90
2022/12/23 01:05:38;;;;;;;19.37;11.20;;;;;;;9.07;100.00;100516.03;5128159;29;20035;-91
2022/12/23 01:08:10;;;;;;;15.63;11.40;;;;;;;8.93;100.00;100490.59;5111146;29;20020;-91
2022/12/23 01:10:41;;;;;;;12.38;11.13;;;;;;;8.96;100.00;100511.59;5122048;29;20027;-91
2022/12/23 01:13:11;;;;;;;14.93;10.25;;;;;;;9.02;100.00;100517.84;5117909;29;20051;-91
2022/12/23 01:15:42;;;;;;;19.10;12.27;;;;;;;8.96;100.00;100518.84;5094454;29;20031;-91
2022/12/23 01:18:13;;;;;;;17.27;13.13;;;;;;;9.11;100.00;100524.41;5095353;29;20036;-91
2022/12/23 01:20:43;;;;;;;13.18;11.63;;;;;;;9.01;100.00;100505.44;5111682;29;20032;-91
2022/12/23 01:23:13;;;;;;;11.75;10.65;;;;;;;9.04;100.00;100523.81;5094247;29;20032;-92
2022/12/23 01:25:44;;;;;;;12.70;11.35;;;;;;;8.75;100.00;100462.13;5111249;29;20047;-91
2022/12/23 01:28:14;;;;;;;15.18;10.55;;;;;;;8.26;100.00;100377.88;5111335;29;20031;-91
2022/12/23 01:30:45;;;;;;;12.20;9.38;;;;;;;9.10;100.00;100522.78;5111847;29;20071;-90
2022/12/23 01:33:15;;;;;;;9.70;8.82;;;;;;;8.25;100.00;100430.03;5094464;29;20413;-90
2022/12/23 01:35:46;;;;;;;12.63;11.10;;;;;;;8.64;100.00;100470.34;5095363;29;20028;-91
2022/12/23 01:38:16;;;;;;;11.85;10.65;;;;;;;8.00;100.00;100366.03;5094318;29;20028;-90
2022/12/23 01:40:47;;;;;;;16.40;9.93;;;;;;;8.90;100.00;100501.03;5094923;29;20027;-90
2022/12/23 01:43:19;;;;;;;12.63;8.68;;;;;;;8.68;100.00;100477.66;5111862;29;20079;-90
2022/12/23 01:45:49;;;;;;;11.15;10.02;;;;;;;8.44;100.00;100442.13;5094889;29;20024;-90
2022/12/23 01:48:25;;;;;;;14.93;12.82;;;;;;;8.74;100.00;100492.78;5095018;29;20035;-90
2022/12/23 01:51:05;;;;;;;12.18;10.75;;;;;;;7.92;100.00;100382.59;5094729;29;20387;-90
2022/12/23 01:53:39;;;;;;;13.82;11.48;;;;;;;7.84;100.00;100372.25;5111892;29;20024;-90
2022/12/23 01:56:15;;;;;;;11.65;10.68;;;;;;;9.05;100.00;100555.06;5111991;29;20553;-90
2022/12/23 01:58:49;;;;;;;11.93;10.73;;;;;;;8.09;100.00;100420.97;5093619;29;20506;-91
2022/12/23 02:04:16;;;;;;;11.93;9.50;;;;;;;7.78;100.00;100398.28;5110269;29;20024;-92
2022/12/23 02:09:39;;;;;;;20.35;11.88;;;;;;;8.87;100.00;100566.19;5111651;29;20032;-92
2022/12/23 02:12:40;;;;;;;20.58;10.57;;;;;;;8.57;100.00;100510.91;5095731;29;20023;-92
2022/12/23 02:18:46;;;;;;;8.25;7.55;;;;;;;8.84;100.00;100580.13;5116485;28;20047;-92
2022/12/23 02:21:45;;;;;;;15.15;8.00;;;;;;;8.82;100.00;100577.69;5094223;29;20032;-90
2022/12/23 02:24:53;;;;;;;12.50;8.32;;;;;;;8.79;100.00;100589.78;5094137;29;20446;-92
2022/12/23 02:27:31;;;;;;;19.70;10.98;;;;;;;8.68;100.00;100576.44;5096214;29;20560;-91
2022/12/23 02:30:28;;;;;;;9.73;8.07;;;;;;;8.76;100.00;100603.72;5116030;29;20031;-92
2022/12/23 02:33:08;;;;;;;9.73;8.98;;;;;;;8.78;100.00;100603.50;5098008;29;20020;-91
2022/12/23 02:35:57;;;;;;;10.30;9.50;;;;;;;8.42;100.00;100559.97;5099166;29;20058;-91
2022/12/23 02:38:46;;;;;;;15.02;8.68;;;;;;;8.61;100.00;100606.25;5099071;29;20387;-92
2022/12/23 02:41:28;;;;;;;9.93;8.77;;;;;;;8.34;100.00;100564.97;5097915;29;20066;-91
2022/12/23 02:44:11;;;;;;;16.60;9.75;;;;;;;8.23;100.00;100534.38;5097766;29;20031;-92
2022/12/23 02:46:47;;;;;;;11.25;8.27;;;;;;;8.52;100.00;100585.38;5097201;29;20063;-91
2022/12/23 02:49:24;;;;;;;21.38;11.75;;;;;;;7.20;100.00;100390.72;5098242;29;20042;-92
2022/12/23 02:51:58;;;;;;;15.88;11.25;;;;;;;8.14;100.00;100571.66;5097765;29;20070;-90
2022/12/23 02:54:33;;;;;;;9.98;8.75;;;;;;;7.59;100.00;100455.22;5096423;29;20043;-91
2022/12/23 02:57:07;;;;;;;10.65;9.65;;;;;;;8.14;100.00;100555.50;5096352;29;20035;-90
2022/12/23 02:59:43;;;;;;;23.05;10.88;;;;;;;8.68;100.00;100632.97;5113461;29;20038;-92
2022/12/23 03:02:14;;;;;;;14.77;10.82;;;;;;;7.42;100.00;100450.69;5096007;29;20028;-91
2022/12/23 03:04:44;;;;;;;12.65;10.82;;;;;;;7.88;100.00;100520.44;5096326;29;20047;-91
2022/12/23 03:07:41;;;;;;;21.42;10.43;;;;;;;8.70;100.00;100663.94;5096793;29;20023;-92
2022/12/23 03:10:35;;;;;;;19.52;10.77;;;;;;;8.73;100.00;100633.84;5097001;29;20134;-92
2022/12/23 03:13:42;;;;;;;10.02;8.75;;;;;;;8.73;100.00;100636.53;5104417;29;20118;-91
2022/12/23 03:16:49;;;;;;;17.60;10.73;;;;;;;8.74;100.00;100638.16;5114899;23;20260;-68
2022/12/23 03:19:36;;;;;;;14.55;11.48;;;;;;;8.74;100.00;100634.66;5100329;29;20032;-68
2022/12/23 03:22:34;;;;;;;11.63;10.45;;;;;;;8.75;100.00;100633.59;5104843;29;20031;-68
2022/12/23 03:25:15;;;;;;;12.55;10.77;;;;;;;8.75;100.00;100623.66;5105641;29;20024;-68
2022/12/23 03:27:48;;;;;;;15.13;10.55;;;;;;;8.76;100.00;100627.97;5105327;29;20376;-69
2022/12/23 03:30:19;;;;;;;31.48;11.27;;;;;;;8.76;100.00;100627.16;5105432;29;20114;-70
2022/12/23 03:33:01;;;;;;;11.40;10.20;;;;;;;8.68;100.00;100608.72;5104618;29;20098;-69
2022/12/23 03:35:41;;;;;;;9.30;8.55;;;;;;;8.71;100.00;100610.94;5105358;29;20327;-69
2022/12/23 03:38:14;;;;;;;15.38;13.30;;;;;;;8.73;100.00;100620.38;5105220;29;20063;-69
2022/12/23 03:40:54;;;;;;;18.15;12.40;;;;;;;8.67;100.00;100610.59;5104649;29;20457;-69
2022/12/23 03:43:31;;;;;;;;;;;;;;;8.65;100.00;100607.38;5087672;29;20099;-69
2022/12/23 03:46:11;;;;;;;17.92;11.32;;;;;;;8.64;100.00;100616.53;5104918;29;19914;-69
2022/12/23 03:48:47;;;;;;;17.00;9.75;;;;;;;8.60;100.00;100604.63;5104977;29;20034;-69
2022/12/23 03:51:24;;;;;;;12.63;11.38;;;;;;;8.53;100.00;100598.59;5104837;29;20023;-69
2022/12/23 03:54:06;;;;;;;16.27;10.95;;;;;;;8.47;100.00;100604.97;5104000;29;20046;-69
2022/12/23 03:56:46;;;;;;;10.93;9.77;;;;;;;8.39;100.00;100613.44;5104686;29;20078;-69
2022/12/23 03:59:22;;;;;;;19.27;11.07;;;;;;;8.35;100.00;100615.84;5104945;29;20023;-69
2022/12/23 04:02:06;;;;;;;12.35;11.02;;;;;;;8.32;100.00;100615.50;5087115;29;20034;-69
2022/12/23 04:04:45;;;;;;;16.05;10.75;;;;;;;8.35;100.00;100623.09;5104496;29;20063;-70
2022/12/23 04:07:34;;;;;;;12.30;10.60;;;;;;;8.29;100.00;100626.75;5104489;29;20028;-69
2022/12/23 04:10:06;;;;;;;21.88;9.85;;;;;;;8.32;100.00;100635.16;5104913;29;20110;-69
2022/12/23 04:12:38;;;;;;;22.33;12.77;;;;;;;8.35;100.00;100652.69;5104408;29;20032;-69
2022/12/23 04:15:08;;;;;;;12.15;10.13;;;;;;;8.35;100.00;100644.63;5087561;29;20083;-69
2022/12/23 04:17:39;;;;;;;24.67;10.68;;;;;;;8.40;100.00;100653.56;5104689;29;20036;-69
2022/12/23 04:20:09;;;;;;;19.60;12.10;;;;;;;8.43;100.00;100641.50;5087659;29;20591;-69
2022/12/23 04:22:42;;;;;;;10.30;9.27;;;;;;;8.37;100.00;100634.44;5104026;29;20023;-69
2022/12/23 04:25:14;;;;;;;13.60;11.48;;;;;;;8.48;100.00;100657.72;5104256;29;20030;-69
2022/12/23 04:27:44;;;;;;;14.00;11.48;;;;;;;8.50;100.00;100652.09;5104116;29;20078;-69
2022/12/23 04:30:15;;;;;;;12.27;10.30;;;;;;;8.51;100.00;100665.31;5087785;29;20027;-69
2022/12/23 04:32:45;;;;;;;23.90;11.68;;;;;;;8.49;100.00;100645.91;5103977;29;20499;-68
2022/12/23 04:35:16;;;;;;;20.33;12.38;;;;;;;8.48;100.00;100643.44;5104197;29;20023;-68
2022/12/23 04:37:46;;;;;;;20.90;13.45;;;;;;;8.47;100.00;100645.31;5102899;29;20467;-69
2022/12/23 04:40:16;;;;;;;14.35;12.18;;;;;;;8.49;100.00;100645.91;5104061;29;20034;-69
2022/12/23 04:42:47;;;;;;;15.80;11.70;;;;;;;8.48;100.00;100649.66;5103093;29;20062;-69
2022/12/23 04:45:17;;;;;;;17.92;13.85;;;;;;;8.48;100.00;100646.97;5103523;29;20027;-69
2022/12/23 04:47:48;;;;;;;18.27;12.23;;;;;;;8.52;100.00;100656.16;5103589;29;20111;-69
2022/12/23 04:50:18;;;;;;;21.20;15.70;;;;;;;8.54;100.00;100648.66;5103254;29;20028;-69
2022/12/23 04:52:48;;;;;;;17.10;11.05;;;;;;;8.53;100.00;100641.66;5103121;29;20038;-69
2022/12/23 04:55:19;;;;;;;32.33;13.38;;;;;;;8.52;100.00;100633.81;5103394;29;20448;-69
2022/12/23 04:57:49;;;;;;;21.83;13.20;;;;;;;8.51;100.00;100646.47;5103797;29;20108;-70
2022/12/23 05:00:20;;;;;;;24.17;13.98;;;;;;;8.47;100.00;100642.63;5103831;29;20054;-69
2022/12/23 05:02:51;;;;;;;16.70;14.93;;;;;;;8.51;100.00;100646.47;5101861;29;20373;-69
2022/12/23 05:05:21;;;;;;;18.23;12.23;;;;;;;8.55;100.00;100650.31;5103724;29;20094;-69
2022/12/23 05:08:01;;;;;;;22.75;14.80;;;;;;;8.56;100.00;100645.72;5103780;29;20027;-69
2022/12/23 05:10:32;;;;;;;14.80;13.38;;;;;;;8.55;100.00;100657.56;5103494;29;20453;-70
2022/12/23 05:13:02;;;;;;;14.23;13.07;;;;;;;8.51;100.00;100659.91;5103009;29;20023;-69
2022/12/23 05:15:32;;;;;;;16.42;14.82;;;;;;;8.57;100.00;100675.09;5103566;29;20036;-70
2022/12/23 05:18:03;;;;;;;13.38;12.07;;;;;;;8.58;100.00;100673.22;5103882;29;20044;-69
2022/12/23 05:20:33;;;;;;;14.25;12.07;;;;;;;8.58;100.00;100671.34;5103423;29;20091;-69
2022/12/23 05:23:04;;;;;;;13.25;11.98;;;;;;;8.42;100.00;100651.44;5102726;29;20031;-69
2022/12/23 05:25:38;;;;;;;17.80;11.77;;;;;;;8.35;100.00;100647.31;5103480;29;20440;-69
2022/12/23 05:28:09;;;;;;;12.98;11.55;;;;;;;8.49;100.00;100672.00;5104384;29;20059;-69
2022/12/23 05:30:39;;;;;;;10.80;8.88;;;;;;;8.53;100.00;100678.50;5104365;29;20164;-70
2022/12/23 05:33:10;;;;;;;11.85;10.50;;;;;;;8.32;100.00;100639.72;5085932;29;20480;-70
2022/12/23 05:35:40;;;;;;;15.10;8.75;;;;;;;8.53;100.00;100679.34;5102860;29;20102;-70
2022/12/23 05:38:11;;;;;;;16.77;9.52;;;;;;;8.54;100.00;100672.06;5103252;29;20032;-71
2022/12/23 05:40:41;;;;;;;14.60;10.35;;;;;;;8.55;100.00;100671.00;5086979;29;20027;-70
2022/12/23 05:43:12;;;;;;;11.07;8.98;;;;;;;8.54;100.00;100666.69;5103555;29;20068;-70
2022/12/23 05:45:42;;;;;;;13.68;10.10;;;;;;;8.51;100.00;100664.50;5103810;29;20114;-70
2022/12/23 05:48:13;;;;;;;12.18;10.15;;;;;;;8.52;100.00;100656.16;5103812;29;20053;-70
2022/12/23 05:50:43;;;;;;;8.45;7.28;;;;;;;8.50;100.00;100647.53;5086462;29;20035;-71
2022/12/23 05:53:14;;;;;;;11.98;8.60;;;;;;;8.49;100.00;100645.91;5085841;29;20487;-71
2022/12/23 05:55:44;;;;;;;10.68;7.32;;;;;;;8.43;100.00;100634.25;5103755;29;20467;-71
2022/12/23 05:58:15;;;;;;;9.00;8.10;;;;;;;8.24;100.00;100594.38;5086799;29;20441;-71
2022/12/23 06:00:45;;;;;;;22.67;8.52;;;;;;;8.49;100.00;100629.75;5101650;29;20035;-71
2022/12/23 06:03:15;;;;;;;7.80;7.13;;;;;;;8.35;100.00;100615.03;5103957;29;20027;-71
2022/12/23 06:05:49;;;;;;;12.57;7.47;;;;;;;8.46;100.00;100622.16;5107949;29;20047;-70
2022/12/23 06:08:20;;;;;;;18.88;9.20;;;;;;;8.43;100.00;100609.22;5107819;29;20024;-70
2022/12/23 06:10:50;;;;;;;8.80;8.15;;;;;;;8.39;100.00;100614.25;5107729;29;20027;-70
2022/12/23 06:13:21;;;;;;;35.20;10.80;;;;;;;8.21;100.00;100595.69;5087312;29;20404;-70
2022/12/23 06:15:51;;;;;;;8.63;6.20;;;;;;;8.35;100.00;100618.53;5106534;29;20063;-70
2022/12/23 06:18:22;;;;;;;7.95;6.90;;;;;;;8.05;100.00;100575.84;5107007;29;20028;-69
2022/12/23 06:20:52;;;;;;;13.88;8.23;;;;;;;8.32;100.00;100623.56;5106757;29;20464;-69
2022/12/23 06:23:22;;;;;;;9.85;7.88;;;;;;;8.30;100.00;100633.75;5105761;29;20504;-69
2022/12/23 06:26:00;;;;;;;10.57;6.97;;;;;;;7.97;100.00;100580.81;5106463;29;20020;-70
2022/12/23 06:28:30;;;;;;;7.43;6.75;;;;;;;8.29;100.00;100624.06;5106439;29;20032;-70
2022/12/23 06:31:01;;;;;;;13.82;7.10;;;;;;;8.27;100.00;100628.88;5106477;29;20083;-69
2022/12/23 06:33:31;;;;;;;9.57;7.13;;;;;;;8.24;100.00;100618.59;5105838;29;20413;-69
2022/12/23 06:36:02;;;;;;;10.75;8.77;;;;;;;8.05;100.00;100613.47;5088796;29;20062;-69
2022/12/23 06:38:32;;;;;;;10.52;9.60;;;;;;;8.09;100.00;100638.81;5106188;29;20027;-70
2022/12/23 06:41:03;;;;;;;8.38;7.53;;;;;;;8.16;100.00;100649.41;5106605;29;20043;-69
2022/12/23 06:43:33;;;;;;;17.90;7.85;;;;;;;7.79;100.00;100608.75;5105693;29;20045;-70
2022/12/23 06:46:03;;;;;;;15.77;8.98;;;;;;;8.11;100.00;100655.50;5106068;29;20034;-70
2022/12/23 06:48:34;;;;;;;21.70;12.57;;;;;;;8.13;100.00;100655.25;5098444;29;20107;-70
2022/12/23 06:51:04;;;;;;;22.15;7.63;;;;;;;8.16;100.00;100653.97;5087810;29;20115;-73
2022/12/23 06:53:35;;;;;;;11.75;10.02;;;;;;;8.13;100.00;100648.00;5088468;29;20028;-71
2022/12/23 06:56:05;;;;;;;7.65;7.05;;;;;;;8.19;100.00;100661.53;5071022;29;20478;-71
2022/12/23 06:58:36;;;;;;;14.30;10.23;;;;;;;8.18;100.00;100670.69;5086419;29;20062;-72
2022/12/23 07:01:06;;;;;;;18.30;9.23;;;;;;;8.15;100.00;100663.91;5086704;29;20038;-69
2022/12/23 07:03:36;;;;;;;18.52;9.93;;;;;;;8.17;100.00;100663.66;5085352;29;20059;-70
2022/12/23 07:06:07;;;;;;;12.77;9.68;;;;;;;8.16;100.00;100662.84;5086521;29;20031;-70
2022/12/23 07:08:37;;;;;;;12.63;10.73;;;;;;;8.16;100.00;100648.59;5086244;29;20024;-71
2022/12/23 07:11:07;;;;;;;9.13;8.20;;;;;;;8.14;100.00;100646.94;5085153;29;20028;-71
2022/12/23 07:13:38;;;;;;;18.33;9.02;;;;;;;8.17;100.00;100647.53;5084528;29;20055;-71
2022/12/23 07:16:08;;;;;;;10.27;9.27;;;;;;;8.04;100.00;100619.09;5086152;29;20051;-71
2022/12/23 07:18:39;;;;;;;15.38;9.48;;;;;;;8.06;100.00;100631.25;5085229;29;20066;-70
2022/12/23 07:21:09;;;;;;;14.25;10.30;;;;;;;8.18;100.00;100655.34;5083442;29;20076;-70
2022/12/23 07:23:40;;;;;;;13.98;11.30;;;;;;;8.18;100.00;100647.28;5085221;29;20063;-70
2022/12/23 07:26:10;;;;;;;10.05;9.40;;;;;;;8.18;100.00;100643.78;5086235;29;20071;-70
2022/12/23 07:28:43;;;;;;;10.38;9.32;;;;;;;8.07;100.00;100637.44;5086168;29;20039;-71
2022/12/23 07:31:15;;;;;;;9.93;8.93;;;;;;;8.12;100.00;100649.06;5072213;29;20035;-69
2022/12/23 07:33:45;;;;;;;12.02;10.77;;;;;;;8.12;100.00;100629.44;5065739;29;20069;-71
2022/12/23 07:36:16;;;;;;;11.65;9.15;;;;;;;8.18;100.00;100636.53;5094637;29;20078;-71
2022/12/23 07:38:50;;;;;;;16.13;10.38;;;;;;;8.03;100.00;100604.03;5105287;29;20028;-71
2022/12/23 07:41:21;;;;;;;15.18;10.77;;;;;;;8.14;100.00;100627.31;5104858;29;20039;-70
2022/12/23 07:43:54;;;;;;;13.57;12.48;;;;;;;8.18;100.00;100627.63;5105554;29;20043;-72
2022/12/23 07:46:25;;;;;;;18.85;11.40;;;;;;;8.17;100.00;100626.00;5088403;29;20485;-71
2022/12/23 07:48:55;;;;;;;12.80;11.73;;;;;;;8.14;100.00;100625.44;5063321;29;20035;-72
2022/12/23 07:51:26;;;;;;;14.35;11.70;;;;;;;8.03;100.00;100610.22;5060927;29;20025;-72
2022/12/23 07:53:56;;;;;;;11.70;10.23;;;;;;;8.13;100.00;100623.00;5064937;29;20025;-73
2022/12/23 07:56:27;;;;;;;35.05;12.63;;;;;;;8.13;100.00;100620.31;5065992;29;20029;-73
2022/12/23 07:58:57;;;;;;;14.30;9.70;;;;;;;8.11;100.00;100617.03;5066598;29;20047;-69
2022/12/23 08:01:27;;;;;;;17.13;11.75;;;;;;;8.12;100.00;100624.88;5066262;29;20422;-72
2022/12/23 08:03:58;;;;;;;11.98;11.07;;;;;;;8.14;100.00;100632.69;5065942;29;20025;-74
2022/12/23 08:06:28;;;;;;;13.95;11.80;;;;;;;8.13;100.00;100649.88;5066660;29;20024;-72
2022/12/23 08:08:58;;;;;;;11.13;10.13;;;;;;;8.11;100.00;100643.94;5067117;29;20080;-73
2022/12/23 08:11:29;;;;;;;12.52;10.98;;;;;;;8.13;100.00;100642.63;5066795;29;20398;-70
2022/12/23 08:13:59;;;;;;;16.23;11.70;;;;;;;8.08;100.00;100637.16;5065911;29;20492;-72
2022/12/23 08:16:30;;;;;;;13.43;12.07;;;;;;;8.13;100.00;100636.44;5066325;29;20028;-69
2022/12/23 08:19:00;;;;;;;12.27;11.00;;;;;;;8.10;100.00;100629.69;5066867;29;20021;-72
2022/12/23 08:21:30;;;;;;;14.93;11.60;;;;;;;8.12;100.00;100616.78;5066000;29;20032;-72
2022/12/23 08:24:01;;;;;;;18.20;14.38;;;;;;;7.90;100.00;100580.16;5066312;29;20493;-74
2022/12/23 08:26:32;;;;;;;18.48;15.25;;;;;;;8.09;100.00;100613.78;5066887;29;20112;-73
2022/12/23 08:29:02;;;;;;;23.52;13.80;;;;;;;8.08;100.00;100612.19;5066276;29;20027;-74
2022/12/23 08:31:32;;;;;;;13.65;12.43;;;;;;;7.77;100.00;100565.19;5065670;29;20036;-70
2022/12/23 08:34:03;;;;;;;14.48;13.32;;;;;;;8.02;100.00;100610.47;5065436;29;20080;-72
2022/12/23 08:36:34;;;;;;;14.48;12.57;;;;;;;8.01;100.00;100612.34;5066618;29;20045;-73
2022/12/23 08:39:09;;;;;;;12.15;10.98;;;;;;;8.00;100.00;100616.09;5066432;29;20032;-70
2022/12/23 08:41:43;;;;;;;13.65;12.55;;;;;;;7.99;100.00;100602.88;5049204;29;20509;-73
2022/12/23 08:44:14;;;;;;;16.98;12.85;;;;;;;7.97;100.00;100611.19;5049260;29;20084;-72
2022/12/23 08:46:45;;;;;;;21.92;11.05;;;;;;;7.94;100.00;100595.56;5066040;29;20549;-73
2022/12/23 08:49:15;;;;;;;13.02;11.90;;;;;;;7.89;100.00;100592.78;5064947;29;20032;-72
2022/12/23 08:51:46;;;;;;;13.52;12.32;;;;;;;7.69;100.00;100544.06;5064904;29;20037;-71
2022/12/23 08:54:19;;;;;;;13.00;11.65;;;;;;;7.85;100.00;100567.44;5087593;29;20023;-71
2022/12/23 08:56:49;;;;;;;14.73;11.40;;;;;;;7.85;100.00;100545.94;5087266;29;20031;-73
2022/12/23 08:59:20;;;;;;;11.45;10.52;;;;;;;7.88;100.00;100536.56;5104226;29;20373;-70
2022/12/23 09:01:50;;;;;;;14.60;13.15;;;;;;;7.70;100.00;100500.84;5103990;29;20488;-71
2022/12/23 09:04:20;;;;;;;14.93;13.52;;;;;;;7.91;100.00;100531.50;5103736;29;20023;-73
2022/12/23 09:06:51;;;;;;;14.60;12.13;;;;;;;7.82;100.00;100511.47;5104118;29;20523;-73
2022/12/23 09:09:21;;;;;;;15.82;14.23;;;;;;;7.89;100.00;100516.69;5104076;29;20023;-72
2022/12/23 09:11:51;;;;;;;13.85;12.65;;;;;;;7.65;100.00;100479.25;5103591;29;20024;-75
2022/12/23 09:14:22;;;;;;;24.67;12.88;;;;;;;7.89;100.00;100522.88;5104123;29;20408;-72
2022/12/23 09:16:52;;;;;;;13.45;11.52;;;;;;;7.91;100.00;100526.13;5117033;23;20044;-65
2022/12/23 09:19:23;;;;;;;13.48;12.27;;;;;;;7.93;100.00;100532.06;5085378;29;20110;-63
2022/12/23 09:21:53;;;;;;;15.63;13.32;;;;;;;7.90;100.00;100535.25;5102186;29;20531;-63
2022/12/23 09:24:23;;;;;;;11.23;10.13;;;;;;;8.00;100.00;100545.34;5102541;29;20059;-63
2022/12/23 09:26:54;;;;;;;13.30;11.82;;;;;;;8.06;100.00;100545.19;5102351;29;20070;-64
2022/12/23 09:29:24;;;;;;;13.65;11.05;;;;;;;8.11;100.00;100550.63;5101965;29;20031;-64
2022/12/23 09:31:54;;;;;;;11.90;10.70;;;;;;;8.16;100.00;100535.63;5101514;29;20647;-64
2022/12/23 09:34:25;;;;;;;13.05;11.95;;;;;;;8.20;100.00;100539.44;5101981;29;20469;-64
2022/12/23 09:36:55;;;;;;;15.88;10.57;;;;;;;7.99;100.00;100495.34;5101618;29;20027;-64
2022/12/23 09:39:26;;;;;;;14.82;11.68;;;;;;;8.25;100.00;100531.44;5102311;29;20074;-64
2022/12/23 09:42:27;;;;;;;14.00;10.82;;;;;;;8.27;100.00;100540.09;5101083;29;20023;-64
2022/12/23 09:45:00;;;;;;;12.63;11.52;;;;;;;8.30;100.00;100539.59;5085802;29;20526;-64
2022/12/23 09:47:32;;;;;;;10.20;8.90;;;;;;;8.31;100.00;100525.91;5085312;29;20032;-64
2022/12/23 09:50:16;;;;;;;13.98;10.95;;;;;;;8.39;100.00;100532.72;5101920;29;20031;-63
2022/12/23 09:53:03;;;;;;;16.25;11.63;;;;;;;8.40;100.00;100520.91;5101491;29;20031;-64
2022/12/23 09:56:05;;;;;;;11.82;10.55;;;;;;;8.41;100.00;100509.09;5102051;29;20034;-64
2022/12/23 09:58:46;;;;;;;12.27;10.60;;;;;;;8.42;100.00;100499.94;5101685;29;20074;-64
2022/12/23 10:01:40;;;;;;;10.70;9.73;;;;;;;8.41;100.00;100496.44;5085023;29;20377;-63
2022/12/23 10:04:28;;;;;;;14.63;10.38;;;;;;;8.43;100.00;100497.00;5101915;29;20063;-64
2022/12/23 10:07:17;;;;;;;11.05;9.77;;;;;;;8.37;100.00;100484.56;5101993;29;20040;-63
2022/12/23 10:09:50;;;;;;;14.23;10.43;;;;;;;8.42;100.00;100489.19;5102526;29;20377;-62
2022/12/23 10:12:34;;;;;;;9.88;8.98;;;;;;;8.40;100.00;100464.41;5101745;29;20480;-63
2022/12/23 10:15:20;;;;;;;10.07;9.05;;;;;;;8.38;100.00;100467.34;5102133;29;20076;-62
2022/12/23 10:17:54;;;;;;;17.38;10.10;;;;;;;8.38;100.00;100450.38;5102333;29;20484;-62
2022/12/23 10:20:40;;;;;;;10.80;9.75;;;;;;;8.37;100.00;100452.25;5101998;29;20035;-61
2022/12/23 10:23:16;;;;;;;12.63;10.75;;;;;;;8.39;100.00;100431.31;5101534;29;20106;-62
2022/12/23 10:25:52;;;;;;;9.88;8.90;;;;;;;8.40;100.00;100429.44;5084605;29;20396;-61
2022/12/23 10:28:22;;;;;;;10.77;9.50;;;;;;;8.38;100.00;100401.97;5102026;29;20035;-61
2022/12/23 10:31:01;;;;;;;9.18;8.50;;;;;;;8.49;100.00;100413.66;5101274;29;20032;-62
2022/12/23 10:34:11;;;;;;;9.97;8.93;;;;;;;8.49;100.00;100409.09;5101631;29;20024;-62
2022/12/23 10:36:47;;;;;;;;;;;;;;;8.49;100.00;100409.09;5102494;29;20480;-62
2022/12/23 10:40:02;;;;;;;11.02;8.93;;;;;;;8.47;100.00;100387.00;5102196;29;19911;-63
2022/12/23 10:42:40;;;;;;;15.32;9.50;;;;;;;8.32;100.00;100351.84;5052949;29;20500;-62
2022/12/23 10:45:22;;;;;;;10.65;9.27;;;;;;;8.39;100.00;100352.47;5122026;29;20491;-61
2022/12/23 10:48:19;;;;;;;10.43;9.45;;;;;;;8.47;100.00;100360.09;5121463;28;20498;-61
2022/12/23 10:51:14;;;;;;;14.25;11.55;;;;;;;8.46;100.00;100351.19;5105197;29;20050;-62
2022/12/23 10:53:53;;;;;;;19.55;9.35;;;;;;;8.41;100.00;100347.66;5125554;29;20516;-62
2022/12/23 10:56:24;;;;;;;11.80;10.45;;;;;;;8.41;100.00;100347.66;5125927;29;20035;-63
2022/12/23 10:58:58;;;;;;;9.63;7.85;;;;;;;8.38;100.00;100338.19;5124824;29;20030;-63
2022/12/23 11:01:30;;;;;;;9.55;8.60;;;;;;;8.37;100.00;100336.56;5124390;29;20027;-62
2022/12/23 11:04:11;;;;;;;9.15;7.70;;;;;;;7.93;100.00;100249.78;5124366;29;20067;-62
2022/12/23 11:06:47;;;;;;;12.48;7.95;;;;;;;8.35;100.00;100300.25;5124346;29;20114;-61
2022/12/23 11:09:36;;;;;;;9.25;6.80;;;;;;;8.38;100.00;100297.03;5124706;29;20033;-62
2022/12/23 11:12:09;;;;;;;10.18;8.80;;;;;;;8.46;100.00;100296.56;5123954;29;20059;-62
2022/12/23 11:14:55;;;;;;;19.10;9.02;;;;;;;8.49;100.00;100298.75;5124441;29;20070;-62
2022/12/23 11:17:28;;;;;;;10.85;9.45;;;;;;;8.48;100.00;100305.19;5124795;29;20031;-62
2022/12/23 11:20:14;;;;;;;8.48;7.78;;;;;;;8.48;100.00;100299.81;5124941;29;20051;-62
2022/12/23 11:22:48;;;;;;;10.73;8.90;;;;;;;8.50;100.00;100286.13;5124436;29;20447;-62
2022/12/23 11:25:26;;;;;;;10.85;9.85;;;;;;;8.51;100.00;100275.09;5108394;29;20054;-62
2022/12/23 11:28:03;;;;;;;16.85;7.50;;;;;;;8.54;100.00;100268.38;5125565;29;20058;-62
2022/12/23 11:31:04;;;;;;;10.25;9.35;;;;;;;8.55;100.00;100268.13;5125130;29;20035;-62
2022/12/23 11:33:38;;;;;;;15.10;9.77;;;;;;;8.57;100.00;100249.84;5124928;29;20031;-62
2022/12/23 11:36:11;;;;;;;9.57;8.73;;;;;;;8.57;100.00;100244.47;5125317;29;20027;-62
2022/12/23 11:38:51;;;;;;;10.98;9.73;;;;;;;8.56;100.00;100237.47;5116456;29;20027;-62
2022/12/23 11:41:28;;;;;;;12.00;9.30;;;;;;;8.58;100.00;100243.41;5123003;29;20495;-61
2022/12/23 11:44:26;;;;;;;13.75;10.32;;;;;;;8.58;100.00;100240.72;5123489;29;20027;-62
2022/12/23 11:46:57;;;;;;;8.63;7.93;;;;;;;8.59;100.00;100225.38;5125325;29;20058;-61
2022/12/23 11:49:30;;;;;;;9.50;8.63;;;;;;;8.57;100.00;100197.91;5124725;29;20054;-62
2022/12/23 11:52:13;;;;;;;8.32;7.50;;;;;;;8.56;100.00;100205.16;5124931;29;20019;-62
2022/12/23 11:55:21;;;;;;;8.20;7.50;;;;;;;8.55;100.00;100191.97;5107856;29;20055;-63
2022/12/23 11:57:52;;;;;;;8.50;7.45;;;;;;;8.57;100.00;100181.75;5125090;29;20388;-63
2022/12/23 12:00:33;;;;;;;7.75;7.05;;;;;;;8.59;100.00;100168.84;5125189;28;20027;-63
2022/12/23 12:03:05;;;;;;;8.82;8.13;;;;;;;8.60;100.00;100165.09;5120750;29;20031;-62
2022/12/23 12:05:39;;;;;;;7.97;7.40;;;;;;;8.58;100.00;100173.44;5125427;29;20435;-62
2022/12/23 12:08:13;;;;;;;8.25;7.50;;;;;;;8.39;100.00;100150.69;5125140;29;20031;-62
2022/12/23 12:10:44;;;;;;;8.45;7.38;;;;;;;8.56;100.00;100172.88;5126547;29;20035;-62
2022/12/23 12:13:24;;;;;;;6.93;6.45;;;;;;;8.54;100.00;100142.72;5125440;29;20034;-63